Time;durP1;ratioP1;P1;durP2;ratioP2;P2;SDS_P1;SDS_P2;PMS_P1;PMS_P2;Temp;Humidity;BMP_temperature;BMP_pressure;BME280_temperature;BME280_humidity;BME280_pressure;Samples;Min_cycle;Max_cycle;Signal;HPM_P1;HPM_P2
2020/12/09 10:22:38;;;;;;;15.98;9.68;;;;;;;-1.36;74.44;101123.67;1770063;79;21349;-39
2020/12/09 10:25:07;;;;;;;17.70;10.32;;;;;;;-1.35;74.38;101125.83;1785546;78;21116;-39
2020/12/09 10:27:35;;;;;;;26.00;11.18;;;;;;;-1.32;74.45;101129.00;1787793;78;21178;-35
2020/12/09 10:30:05;;;;;;;22.10;11.65;;;;;;;-1.34;74.13;101122.06;1746915;80;21662;-39
2020/12/09 10:32:34;;;;;;;28.00;14.23;;;;;;;-1.36;74.16;101122.78;1775804;78;21415;-38
2020/12/09 10:35:03;;;;;;;31.68;13.45;;;;;;;-1.37;74.31;101122.30;1780231;78;21152;-39
2020/12/09 10:37:31;;;;;;;25.25;15.03;;;;;;;-1.34;74.32;101122.47;1786782;78;21177;-34
2020/12/09 10:40:01;;;;;;;22.32;12.65;;;;;;;-1.31;74.36;101120.10;1780511;78;21178;-37
2020/12/09 10:42:34;;;;;;;26.20;12.35;;;;;;;-1.28;74.07;101118.98;1757632;78;21200;-38
2020/12/09 10:45:09;;;;;;;24.10;12.75;;;;;;;-1.27;73.81;101119.91;1777855;78;21134;-36
2020/12/09 10:48:02;;;;;;;;;;;;;;;-1.30;73.82;101118.02;1774599;78;21313;-38
2020/12/09 10:50:34;;;;;;;27.85;12.75;;;;;;;-1.34;73.79;101128.48;1784004;78;20246;-36
2020/12/09 10:53:02;;;;;;;30.77;15.72;;;;;;;-1.39;73.87;101126.47;1782928;78;21124;-39
2020/12/09 10:55:36;;;;;;;24.02;12.78;;;;;;;-1.43;73.90;101133.08;1782744;78;21171;-34
2020/12/09 10:58:08;;;;;;;25.15;13.32;;;;;;;-1.43;74.23;101128.34;1761236;78;21154;-33
2020/12/09 11:00:37;;;;;;;26.95;13.32;;;;;;;-1.41;74.32;101125.46;1780632;78;21680;-39
2020/12/09 11:03:04;;;;;;;24.40;12.28;;;;;;;-1.39;74.31;101124.78;1782280;78;21641;-39
2020/12/09 11:05:32;;;;;;;25.88;12.58;;;;;;;-1.35;74.31;101121.98;1780361;78;21118;-39
2020/12/09 11:11:05;;;;;;;19.85;10.78;;;;;;;-1.35;73.82;101125.44;1775315;78;23144;-39
2020/12/09 11:13:37;;;;;;;21.57;11.35;;;;;;;-1.41;73.81;101125.06;1731462;80;21196;-38
2020/12/09 11:16:06;;;;;;;19.90;11.25;;;;;;;-1.45;73.82;101121.84;1728215;81;21320;-34
2020/12/09 11:18:46;;;;;;;18.90;9.53;;;;;;;-1.45;73.82;101123.12;1726554;81;22227;-34
2020/12/09 11:22:11;;;;;;;14.87;8.88;;;;;;;-1.46;74.02;101124.30;1723444;81;21183;-39
2020/12/09 11:25:11;;;;;;;18.57;10.58;;;;;;;-1.45;73.81;101118.36;1724915;81;21175;-35
2020/12/09 11:27:39;;;;;;;20.72;10.18;;;;;;;-1.51;73.40;101125.69;1728540;81;21980;-40
2020/12/09 11:30:16;;;;;;;25.32;11.20;;;;;;;-1.59;73.60;101121.37;1702080;81;21183;-40
2020/12/09 11:33:03;;;;;;;27.77;13.03;;;;;;;-1.58;73.93;101129.56;1677698;84;21336;-34
2020/12/09 11:35:50;;;;;;;29.75;13.62;;;;;;;-1.61;73.97;101128.98;1668485;84;21365;-37
2020/12/09 11:38:38;;;;;;;23.00;12.18;;;;;;;-1.64;73.93;101127.50;1696273;82;21191;-34
2020/12/09 11:41:09;;;;;;;25.17;13.10;;;;;;;-1.64;74.20;101127.50;1673118;84;21397;-38
2020/12/09 11:43:44;;;;;;;26.05;13.00;;;;;;;-1.61;74.09;101129.39;1667688;82;21551;-38
2020/12/09 11:46:18;;;;;;;23.75;12.82;;;;;;;-1.62;74.09;101122.48;1677566;83;21151;-38
2020/12/09 11:48:52;;;;;;;27.95;13.85;;;;;;;-1.65;74.09;101126.13;1678830;84;21224;-38
2020/12/09 11:51:20;;;;;;;28.38;13.88;;;;;;;-1.68;74.32;101129.41;1668884;84;21183;-34
2020/12/09 11:53:50;;;;;;;24.63;13.32;;;;;;;-1.68;74.47;101134.55;1670366;82;21198;-38
2020/12/09 11:56:28;;;;;;;25.90;12.40;;;;;;;-1.67;74.37;101122.20;1696898;82;21179;-34
2020/12/09 11:58:57;;;;;;;25.60;13.25;;;;;;;-1.67;74.18;101122.20;1693871;82;21191;-35
2020/12/09 12:01:26;;;;;;;28.95;15.25;;;;;;;-1.65;74.28;101132.55;1694216;82;21191;-35
2020/12/09 12:03:54;;;;;;;24.90;13.40;;;;;;;-1.65;74.24;101131.27;1691513;82;21682;-34
2020/12/09 12:06:25;;;;;;;31.15;14.50;;;;;;;-1.65;74.34;101124.45;1692520;82;21753;-35
2020/12/09 12:08:53;;;;;;;23.98;13.03;;;;;;;-1.62;74.36;101115.67;1699521;82;21147;-35
2020/12/09 12:11:23;;;;;;;25.88;12.63;;;;;;;-1.60;73.99;101114.48;1693606;82;21198;-39
2020/12/09 12:13:51;;;;;;;25.65;14.43;;;;;;;-1.62;73.82;101119.52;1695737;82;21674;-38
2020/12/09 12:16:24;;;;;;;24.80;12.73;;;;;;;-1.63;73.75;101118.13;1695938;82;21601;-35
2020/12/09 12:18:52;;;;;;;25.12;13.83;;;;;;;-1.66;73.64;101121.80;1699197;82;21248;-35
2020/12/09 12:21:23;;;;;;;26.25;13.93;;;;;;;-1.72;73.49;101122.70;1696041;82;21175;-39
2020/12/09 12:23:52;;;;;;;22.77;13.15;;;;;;;-1.76;73.63;101116.88;1692489;82;21772;-38
2020/12/09 12:26:21;;;;;;;23.30;12.82;;;;;;;-1.78;73.75;101113.34;1693158;82;21738;-39
2020/12/09 12:28:50;;;;;;;25.82;14.40;;;;;;;-1.79;73.73;101110.30;1692668;83;21627;-38
2020/12/09 12:31:19;;;;;;;25.00;13.60;;;;;;;-1.80;73.80;101116.19;1696698;83;21163;-44
2020/12/09 12:33:54;;;;;;;30.82;14.30;;;;;;;-1.79;74.00;101121.44;1695536;83;21290;-36
2020/12/09 12:36:22;;;;;;;23.70;12.58;;;;;;;-1.80;73.85;101121.31;1694826;83;21704;-39
2020/12/09 12:38:50;;;;;;;24.20;14.55;;;;;;;-1.84;73.90;101124.51;1673739;84;21219;-38
2020/12/09 12:41:21;;;;;;;28.02;14.85;;;;;;;-1.86;74.03;101120.54;1675547;84;21187;-34
2020/12/09 12:44:03;;;;;;;27.37;13.62;;;;;;;-1.86;74.16;101126.95;1667681;84;21632;-34
2020/12/09 12:46:31;;;;;;;26.50;13.85;;;;;;;-1.83;74.28;101125.00;1668954;84;21195;-38
2020/12/09 12:48:59;;;;;;;26.30;14.25;;;;;;;-1.84;74.02;101119.38;1694179;83;21238;-34
2020/12/09 12:51:28;;;;;;;23.50;12.65;;;;;;;-1.90;74.09;101125.02;1695416;83;21187;-38
2020/12/09 12:53:56;;;;;;;26.00;13.88;;;;;;;-1.94;74.29;101123.03;1693047;83;21171;-36
2020/12/09 12:56:24;;;;;;;26.05;12.45;;;;;;;-1.97;74.30;101122.46;1692824;83;21721;-39
2020/12/09 12:58:52;;;;;;;26.60;13.03;;;;;;;-1.98;74.34;101115.92;1694821;83;21195;-35
2020/12/09 13:01:20;;;;;;;21.02;12.07;;;;;;;-2.00;74.18;101123.93;1694583;83;21600;-39
2020/12/09 13:03:48;;;;;;;22.90;13.22;;;;;;;-2.03;74.37;101133.98;1691552;82;21733;-38
2020/12/09 13:06:17;;;;;;;24.02;12.20;;;;;;;-2.08;74.48;101132.43;1695302;83;21603;-34
2020/12/09 13:08:44;;;;;;;25.72;14.13;;;;;;;-2.10;74.64;101133.98;1694399;82;21172;-38
2020/12/09 13:11:14;;;;;;;21.62;12.33;;;;;;;-2.08;74.71;101140.12;1679401;83;21215;-34
2020/12/09 13:13:42;;;;;;;34.78;14.65;;;;;;;-2.09;74.89;101142.17;1680795;83;21176;-34
2020/12/09 13:16:10;;;;;;;26.68;12.37;;;;;;;-2.06;74.91;101144.94;1708981;81;21178;-35
2020/12/09 13:18:38;;;;;;;26.15;14.80;;;;;;;-2.05;75.03;101149.67;1710295;81;21728;-35
2020/12/09 13:21:06;;;;;;;24.32;11.90;;;;;;;-2.05;74.99;101142.87;1707331;83;21209;-34
2020/12/09 13:23:38;;;;;;;23.47;13.25;;;;;;;-2.02;75.13;101148.20;1709194;84;21225;-34
2020/12/09 13:26:06;;;;;;;30.08;12.75;;;;;;;-1.99;75.13;101147.50;1724098;81;21502;-39
2020/12/09 13:28:33;;;;;;;24.55;13.58;;;;;;;-1.98;75.02;101146.30;1660840;85;21520;-38
2020/12/09 13:31:01;;;;;;;25.75;13.68;;;;;;;-1.97;75.14;101147.19;1653926;85;21196;-38
2020/12/09 13:33:29;;;;;;;22.80;12.80;;;;;;;-1.94;75.13;101139.31;1650506;85;21342;-38
2020/12/09 13:35:59;;;;;;;25.82;12.15;;;;;;;-1.92;74.91;101135.55;1669159;85;21667;-35
2020/12/09 13:38:26;;;;;;;30.82;13.48;;;;;;;-1.94;74.73;101142.27;1732640;82;21662;-38
2020/12/09 13:40:54;;;;;;;25.35;12.28;;;;;;;-1.99;74.65;101141.97;1709837;83;21213;-34
2020/12/09 13:43:22;;;;;;;27.82;15.08;;;;;;;-2.02;74.75;101138.34;1709572;84;21238;-38
2020/12/09 13:45:50;;;;;;;27.07;15.03;;;;;;;-2.07;74.87;101143.17;1710075;83;21308;-38
2020/12/09 13:48:18;;;;;;;25.05;12.82;;;;;;;-2.07;75.08;101142.29;1710253;84;21223;-34
2020/12/09 13:50:46;;;;;;;25.32;13.85;;;;;;;-2.06;75.17;101143.66;1710025;83;21190;-38
2020/12/09 13:53:14;;;;;;;28.20;14.30;;;;;;;-2.05;75.17;101150.56;1710225;84;21650;-34
2020/12/09 13:55:44;;;;;;;28.17;14.15;;;;;;;-2.06;75.27;101149.19;1707127;84;21514;-36
2020/12/09 13:58:12;;;;;;;24.80;14.33;;;;;;;-2.07;75.36;101150.88;1710249;84;21207;-35
2020/12/09 14:00:40;;;;;;;28.35;15.23;;;;;;;-2.05;75.26;101148.39;1710078;84;21218;-34
2020/12/09 14:03:09;;;;;;;31.27;15.23;;;;;;;-2.07;75.08;101149.59;1710148;84;21158;-39
2020/12/09 14:05:37;;;;;;;31.33;17.37;;;;;;;-2.08;75.09;101152.95;1709891;84;21653;-39
2020/12/09 14:08:05;;;;;;;27.05;15.75;;;;;;;-2.12;75.00;101159.05;1709907;84;21673;-37
2020/12/09 14:10:33;;;;;;;31.60;16.10;;;;;;;-2.15;75.18;101161.01;1709615;83;21202;-33
2020/12/09 14:13:01;;;;;;;28.27;16.15;;;;;;;-2.13;75.31;101160.73;1718386;82;21156;-35
2020/12/09 14:15:29;;;;;;;28.80;14.53;;;;;;;-2.12;75.29;101154.81;1748077;82;21212;-39
2020/12/09 14:17:57;;;;;;;28.00;13.88;;;;;;;-2.09;75.28;101161.80;1688734;83;21189;-34
2020/12/09 14:20:25;;;;;;;29.60;16.77;;;;;;;-2.10;75.22;101162.20;1688724;84;21224;-38
2020/12/09 14:22:52;;;;;;;24.65;14.47;;;;;;;-2.10;75.36;101160.03;1689016;83;21736;-35
2020/12/09 14:25:22;;;;;;;27.67;14.40;;;;;;;-2.09;75.39;101159.23;1689132;85;21197;-38
2020/12/09 14:27:50;;;;;;;28.02;16.02;;;;;;;-2.06;75.43;101164.58;1689143;83;21661;-39
2020/12/09 14:30:18;;;;;;;29.87;14.50;;;;;;;-2.03;75.47;101160.55;1689011;85;21172;-35
2020/12/09 14:32:46;;;;;;;30.57;14.98;;;;;;;-2.00;75.41;101159.84;1688656;85;21185;-39
2020/12/09 14:35:14;;;;;;;33.80;16.73;;;;;;;-2.00;75.39;101165.85;1688391;85;21182;-36
2020/12/09 14:37:42;;;;;;;30.45;15.05;;;;;;;-1.99;75.43;101155.19;1688593;85;21162;-37
2020/12/09 14:40:09;;;;;;;37.63;19.57;;;;;;;-1.98;75.44;101159.53;1688484;84;21185;-40
2020/12/09 14:42:37;;;;;;;34.48;16.60;;;;;;;-1.96;75.50;101158.85;1688683;84;21189;-33
2020/12/09 14:45:05;;;;;;;34.03;17.85;;;;;;;-1.90;75.51;101159.24;1688815;85;21579;-35
2020/12/09 14:51:33;;;;;;;26.57;15.18;;;;;;;-1.77;75.39;101165.14;1689227;84;21331;-37
2020/12/09 14:54:01;;;;;;;32.05;16.97;;;;;;;-1.74;75.34;101168.80;1689219;85;21165;-36
2020/12/09 14:56:28;;;;;;;38.13;17.45;;;;;;;-1.72;75.33;101168.49;1689372;85;21185;-33
2020/12/09 14:58:56;;;;;;;32.88;17.27;;;;;;;-1.70;75.27;101168.58;1689200;84;21170;-40
2020/12/09 15:01:24;;;;;;;35.78;17.45;;;;;;;-1.67;75.29;101168.78;1689207;84;21189;-33
2020/12/09 15:03:52;;;;;;;32.28;16.35;;;;;;;-1.62;75.32;101166.12;1689190;85;21246;-36
2020/12/09 15:06:20;;;;;;;30.92;16.80;;;;;;;-1.56;75.13;101168.17;1689248;85;21332;-37
2020/12/09 15:08:48;;;;;;;33.05;17.02;;;;;;;-1.53;75.05;101164.10;1689334;85;21597;-33
2020/12/09 15:15:49;;;;;;;37.88;17.40;;;;;;;-1.38;74.63;101170.20;1779720;79;22702;-38
2020/12/09 15:18:16;;;;;;;30.45;17.85;;;;;;;-1.42;74.62;101168.22;1741322;82;21159;-37
2020/12/09 15:20:53;;;;;;;34.92;18.12;;;;;;;-1.39;74.62;101163.69;1723301;83;21183;-36
2020/12/09 15:23:21;;;;;;;36.75;18.07;;;;;;;-1.38;74.59;101170.20;1723410;82;21607;-36
2020/12/09 15:25:49;;;;;;;34.40;16.90;;;;;;;-1.35;74.53;101162.66;1723505;83;21618;-34
2020/12/09 15:28:17;;;;;;;33.78;16.95;;;;;;;-1.29;74.48;101162.55;1723400;82;21202;-34
2020/12/09 15:30:45;;;;;;;34.27;17.75;;;;;;;-1.22;74.37;101161.72;1723361;83;21211;-35
2020/12/09 15:33:12;;;;;;;36.20;17.55;;;;;;;-1.15;74.20;101152.73;1723490;82;21175;-37
2020/12/09 15:35:40;;;;;;;30.97;16.37;;;;;;;-1.11;73.95;101157.24;1723248;83;21139;-35
2020/12/09 15:38:09;;;;;;;35.43;17.40;;;;;;;-1.10;73.76;101157.36;1723414;82;21214;-34
2020/12/09 15:40:38;;;;;;;29.37;16.40;;;;;;;-1.07;73.64;101152.39;1723310;83;21183;-35
2020/12/09 15:43:06;;;;;;;34.23;17.00;;;;;;;-1.05;73.69;101142.20;1723480;82;21167;-37
2020/12/09 15:45:36;;;;;;;38.65;16.40;;;;;;;-1.00;73.62;101143.36;1723287;83;21661;-38
2020/12/09 15:48:05;;;;;;;35.38;16.77;;;;;;;-0.96;73.51;101145.33;1723522;82;21139;-34
2020/12/09 15:50:33;;;;;;;30.92;16.25;;;;;;;-0.92;73.32;101140.88;1724839;82;21194;-38
2020/12/09 15:53:00;;;;;;;31.10;14.85;;;;;;;-0.88;73.16;101145.77;1725898;83;21149;-35
2020/12/09 15:55:28;;;;;;;34.03;15.80;;;;;;;-0.89;73.02;101147.45;1725565;83;21209;-38
2020/12/09 15:57:58;;;;;;;35.80;15.10;;;;;;;-0.90;72.96;101143.52;1725775;83;21212;-33
2020/12/09 16:00:26;;;;;;;29.30;14.58;;;;;;;-0.86;72.97;101145.48;1725466;83;21202;-35
2020/12/09 16:02:54;;;;;;;30.88;14.93;;;;;;;-0.86;72.90;101139.06;1725507;83;21231;-36
2020/12/09 16:05:22;;;;;;;29.57;16.45;;;;;;;-0.81;72.82;101146.65;1725849;83;21178;-38
2020/12/09 16:07:49;;;;;;;31.77;15.08;;;;;;;-0.80;72.71;101149.70;1726072;83;21189;-34
2020/12/09 16:10:17;;;;;;;26.97;14.68;;;;;;;-0.77;72.75;101146.41;1725904;83;21190;-34
2020/12/09 16:12:45;;;;;;;35.65;17.35;;;;;;;-0.74;72.64;101142.75;1726141;83;21242;-38
2020/12/09 16:21:07;;;;;;;32.60;14.68;;;;;;;-0.65;72.45;101144.16;1779333;79;22538;-38
2020/12/09 16:23:35;;;;;;;30.60;14.23;;;;;;;-0.69;72.48;101149.94;1737645;82;21198;-39
2020/12/09 16:26:04;;;;;;;30.97;14.23;;;;;;;-0.69;72.52;101146.08;1723207;83;21151;-37
2020/12/09 16:28:32;;;;;;;27.17;14.63;;;;;;;-0.64;72.47;101148.89;1723145;82;21661;-37
2020/12/09 16:31:02;;;;;;;25.27;13.50;;;;;;;-0.64;72.44;101147.23;1723349;83;21609;-37
2020/12/09 16:33:31;;;;;;;31.62;14.38;;;;;;;-0.63;72.43;101146.44;1723212;82;21390;-33
2020/12/09 16:35:59;;;;;;;25.45;14.03;;;;;;;-0.62;72.42;101141.77;1723176;83;21206;-35
2020/12/09 16:38:27;;;;;;;30.20;13.70;;;;;;;-0.61;72.41;101141.38;1723137;82;21359;-39
2020/12/09 16:40:56;;;;;;;31.27;14.95;;;;;;;-0.61;72.42;101138.80;1723151;83;21175;-36
2020/12/09 16:43:24;;;;;;;29.23;14.60;;;;;;;-0.63;72.37;101132.30;1723339;82;21171;-33
2020/12/09 16:45:51;;;;;;;26.52;14.10;;;;;;;-0.66;72.32;101134.67;1713968;83;21189;-34
2020/12/09 16:48:19;;;;;;;37.48;15.08;;;;;;;-0.68;72.26;101132.83;1708895;83;21214;-36
2020/12/09 16:50:47;;;;;;;25.95;13.40;;;;;;;-0.73;72.22;101135.13;1708916;84;21834;-33
2020/12/09 16:53:15;;;;;;;26.50;13.35;;;;;;;-0.77;72.26;101136.13;1713859;83;21653;-37
2020/12/09 16:55:43;;;;;;;28.15;13.72;;;;;;;-0.80;72.22;101133.00;1722414;83;21203;-37
2020/12/09 16:58:11;;;;;;;25.50;13.32;;;;;;;-0.82;72.22;101130.31;1693693;83;21209;-33
2020/12/09 17:00:39;;;;;;;30.43;14.45;;;;;;;-0.84;72.19;101129.34;1721793;83;21187;-33
2020/12/09 17:03:07;;;;;;;33.95;14.35;;;;;;;-0.85;72.16;101122.84;1721737;83;21742;-34
2020/12/09 17:05:35;;;;;;;26.50;12.78;;;;;;;-0.86;72.07;101120.67;1722913;83;21195;-33
2020/12/09 17:08:03;;;;;;;26.80;13.53;;;;;;;-0.87;72.09;101117.99;1723199;83;21159;-37
2020/12/09 17:10:32;;;;;;;32.00;14.25;;;;;;;-0.91;72.08;101109.23;1723222;83;21607;-39
2020/12/09 17:13:00;;;;;;;30.27;13.53;;;;;;;-0.90;72.03;101116.55;1723187;83;21203;-34
2020/12/09 17:15:36;;;;;;;29.10;13.83;;;;;;;-0.93;71.87;101113.78;1723243;83;21776;-40
2020/12/09 17:18:01;;;;;;;26.20;13.55;;;;;;;-0.95;71.81;101110.24;1721695;83;21652;-33
2020/12/09 17:20:32;;;;;;;28.73;13.18;;;;;;;-0.96;71.70;101104.63;1719460;82;21152;-33
2020/12/09 17:23:00;;;;;;;29.20;14.43;;;;;;;-0.98;71.56;101108.40;1708857;82;21185;-33
2020/12/09 17:25:28;;;;;;;28.12;13.65;;;;;;;-1.00;71.46;101111.66;1697730;84;21197;-38
2020/12/09 17:35:48;;;;;;;25.48;12.98;;;;;;;-1.09;71.02;101102.63;1763119;79;23010;-36
2020/12/09 17:38:16;;;;;;;31.55;14.23;;;;;;;-1.20;70.91;101107.52;1696967;84;21186;-33
2020/12/09 17:40:44;;;;;;;25.05;13.45;;;;;;;-1.26;70.84;101100.73;1679943;85;21183;-33
2020/12/09 17:43:14;;;;;;;24.12;12.82;;;;;;;-1.30;70.71;101100.05;1679748;84;21178;-34
2020/12/09 17:45:42;;;;;;;25.10;12.43;;;;;;;-1.39;70.29;101102.08;1707932;83;21240;-33
2020/12/09 17:48:10;;;;;;;29.30;13.78;;;;;;;-1.50;70.23;101109.52;1708881;84;21176;-33
2020/12/09 17:50:40;;;;;;;27.22;12.03;;;;;;;-1.61;70.30;101105.89;1707962;84;21200;-37
2020/12/09 17:53:08;;;;;;;26.35;12.63;;;;;;;-1.65;70.17;101112.91;1722689;83;21653;-38
2020/12/09 17:55:36;;;;;;;25.10;12.88;;;;;;;-1.73;69.98;101115.41;1722996;83;21187;-38
2020/12/09 17:58:04;;;;;;;23.62;12.03;;;;;;;-1.80;69.91;101115.79;1723174;82;21611;-38
2020/12/09 18:00:32;;;;;;;30.23;12.80;;;;;;;-1.88;69.85;101114.04;1711305;82;21148;-38
2020/12/09 18:03:00;;;;;;;21.97;11.80;;;;;;;-1.96;69.78;101107.55;1709036;84;21149;-35
2020/12/09 18:05:28;;;;;;;27.60;13.62;;;;;;;-2.01;69.68;101116.63;1708831;83;21656;-37
2020/12/09 18:07:56;;;;;;;28.35;11.50;;;;;;;-2.06;69.56;101113.28;1708749;83;21353;-36
2020/12/09 18:10:26;;;;;;;26.68;12.98;;;;;;;-2.13;69.48;101114.58;1708972;83;21173;-38
2020/12/09 18:12:55;;;;;;;26.10;11.90;;;;;;;-2.18;69.39;101111.72;1708982;83;21226;-36
2020/12/09 18:15:23;;;;;;;25.92;12.47;;;;;;;-2.24;69.22;101110.05;1713376;83;21190;-35
2020/12/09 18:17:51;;;;;;;24.35;12.00;;;;;;;-2.33;69.15;101109.44;1723048;83;21684;-39
2020/12/09 18:20:19;;;;;;;27.42;11.70;;;;;;;-2.42;69.08;101113.59;1723278;83;21226;-35
2020/12/09 18:22:50;;;;;;;33.67;13.75;;;;;;;-2.52;68.96;101115.45;1723310;83;21191;-35
2020/12/09 18:25:20;;;;;;;26.93;13.03;;;;;;;-2.61;68.99;101110.64;1723328;82;21609;-39
2020/12/09 18:27:48;;;;;;;24.05;10.95;;;;;;;-2.70;68.90;101108.73;1714934;83;21619;-32
2020/12/09 18:30:16;;;;;;;26.82;11.85;;;;;;;-2.75;68.92;101108.83;1722931;82;21338;-34
2020/12/09 18:32:43;;;;;;;24.87;11.35;;;;;;;-2.78;68.94;101112.09;1712743;83;21180;-33
2020/12/09 18:35:13;;;;;;;23.65;11.33;;;;;;;-2.78;68.80;101115.93;1704209;83;21216;-37
2020/12/09 18:37:41;;;;;;;26.73;11.73;;;;;;;-2.76;68.59;101119.47;1686964;84;21181;-39
2020/12/09 18:40:12;;;;;;;29.87;12.10;;;;;;;-2.74;68.24;101118.28;1686674;84;21213;-35
2020/12/09 18:42:40;;;;;;;21.55;10.18;;;;;;;-2.73;68.03;101113.25;1685890;84;21266;-38
2020/12/09 18:45:10;;;;;;;25.55;12.20;;;;;;;-2.70;67.73;101107.45;1686447;85;21201;-34
2020/12/09 18:47:42;;;;;;;23.92;10.63;;;;;;;-2.70;67.48;101112.19;1686334;84;21181;-38
2020/12/09 18:50:10;;;;;;;26.42;10.95;;;;;;;-2.69;67.23;101113.07;1686374;84;21331;-34
2020/12/09 18:52:38;;;;;;;24.02;11.55;;;;;;;-2.70;66.81;101110.02;1707423;83;21187;-34
2020/12/09 18:55:06;;;;;;;22.75;10.68;;;;;;;-2.71;66.78;101114.66;1717889;83;21195;-33
2020/12/09 18:57:40;;;;;;;19.02;10.82;;;;;;;-2.73;66.61;101115.81;1717564;83;21144;-34
2020/12/09 19:00:09;;;;;;;25.08;10.65;;;;;;;-2.76;66.09;101124.59;1716433;83;21631;-34
2020/12/09 19:02:39;;;;;;;20.90;9.90;;;;;;;-2.81;65.68;101128.52;1694042;83;21169;-34
2020/12/09 19:05:11;;;;;;;22.75;10.68;;;;;;;-2.87;65.43;101124.27;1662750;85;21213;-33
2020/12/09 19:07:39;;;;;;;19.85;9.33;;;;;;;-2.93;65.17;101123.86;1698840;83;21159;-34
2020/12/09 19:10:07;;;;;;;29.67;9.43;;;;;;;-2.98;65.05;101127.78;1711566;83;21180;-34
2020/12/09 19:12:35;;;;;;;22.30;9.88;;;;;;;-3.04;64.88;101124.81;1704062;83;21179;-34
2020/12/09 19:15:04;;;;;;;28.67;11.48;;;;;;;-3.10;64.76;101129.52;1717517;83;21250;-34
2020/12/09 19:17:34;;;;;;;32.33;11.57;;;;;;;-3.15;64.61;101127.04;1717897;83;21159;-38
2020/12/09 19:20:03;;;;;;;23.62;10.63;;;;;;;-3.20;64.46;101126.72;1717753;83;21372;-38
2020/12/09 19:22:42;;;;;;;20.52;9.28;;;;;;;-3.24;64.34;101125.64;1717786;83;21341;-39
2020/12/09 19:25:09;;;;;;;17.98;8.68;;;;;;;-3.27;63.97;101119.02;1717499;83;21208;-33
2020/12/09 19:27:40;;;;;;;23.70;9.83;;;;;;;-3.32;63.62;101110.14;1717836;83;21579;-37
2020/12/09 19:30:10;;;;;;;26.15;9.18;;;;;;;-3.39;63.56;101105.79;1717741;83;21203;-34
2020/12/09 19:32:40;;;;;;;22.90;9.40;;;;;;;-3.44;63.43;101114.42;1717764;83;21179;-38
2020/12/09 19:35:08;;;;;;;17.42;8.55;;;;;;;-3.49;63.45;101110.27;1714296;83;21152;-34
2020/12/09 19:37:42;;;;;;;24.00;9.43;;;;;;;-3.53;63.26;101115.97;1710081;84;21215;-38
2020/12/09 19:40:10;;;;;;;23.55;9.65;;;;;;;-3.59;63.11;101111.72;1709710;83;21531;-34
2020/12/09 19:42:38;;;;;;;22.75;10.93;;;;;;;-3.64;63.05;101116.90;1710100;84;21152;-38
2020/12/09 19:45:08;;;;;;;19.17;9.48;;;;;;;-3.68;63.03;101117.85;1709963;84;21155;-34
2020/12/09 19:47:35;;;;;;;20.50;9.60;;;;;;;-3.73;63.00;101116.24;1709617;84;21317;-34
2020/12/09 19:50:05;;;;;;;26.27;10.75;;;;;;;-3.77;63.05;101112.97;1709820;84;21663;-34
2020/12/09 19:52:33;;;;;;;21.25;11.15;;;;;;;-3.81;63.07;101105.88;1709424;83;21187;-35
2020/12/09 19:55:02;;;;;;;20.60;9.25;;;;;;;-3.84;63.07;101105.26;1681271;84;21152;-38
2020/12/09 19:57:34;;;;;;;27.87;10.53;;;;;;;-3.87;62.94;101115.29;1681327;85;21139;-38
2020/12/09 20:00:05;;;;;;;20.02;9.40;;;;;;;-3.90;63.04;101112.89;1681459;85;21568;-34
2020/12/09 20:02:35;;;;;;;21.50;10.08;;;;;;;-3.92;63.12;101114.47;1681343;85;21168;-38
2020/12/09 20:05:06;;;;;;;21.10;9.20;;;;;;;-3.96;63.00;101122.30;1668970;84;21203;-38
2020/12/09 20:07:34;;;;;;;30.23;10.35;;;;;;;-4.00;62.92;101120.33;1699616;84;21144;-38
2020/12/09 20:10:04;;;;;;;18.77;8.70;;;;;;;-4.05;63.04;101119.99;1709529;83;21195;-38
2020/12/09 20:12:32;;;;;;;15.43;8.68;;;;;;;-4.08;63.07;101121.03;1709804;84;21179;-38
2020/12/09 20:15:04;;;;;;;22.05;9.40;;;;;;;-4.11;63.09;101114.84;1709929;84;21146;-34
2020/12/09 20:17:33;;;;;;;19.67;9.40;;;;;;;-4.13;63.01;101113.42;1709351;84;21171;-34
2020/12/09 20:20:02;;;;;;;28.70;11.63;;;;;;;-4.15;63.05;101117.95;1708676;84;21187;-38
2020/12/09 20:22:33;;;;;;;20.72;9.40;;;;;;;-4.18;63.00;101113.88;1695629;84;21573;-34
2020/12/09 20:25:01;;;;;;;20.75;9.28;;;;;;;-4.19;62.89;101113.38;1695867;84;21197;-34
2020/12/09 20:27:29;;;;;;;22.22;9.60;;;;;;;-4.25;62.96;101110.39;1700799;84;21167;-34
2020/12/09 20:29:57;;;;;;;25.57;9.50;;;;;;;-4.29;63.03;101105.08;1709666;83;21159;-38
2020/12/09 20:32:27;;;;;;;23.77;9.30;;;;;;;-4.32;63.09;101113.78;1709708;84;21151;-34
2020/12/09 20:34:56;;;;;;;24.57;10.00;;;;;;;-4.34;63.05;101103.86;1704342;84;21153;-38
2020/12/09 20:37:24;;;;;;;23.55;9.33;;;;;;;-4.37;63.10;101107.84;1686177;85;21201;-34
2020/12/09 20:39:52;;;;;;;21.35;9.08;;;;;;;-4.41;63.19;101100.33;1709552;83;21227;-34
2020/12/09 20:42:20;;;;;;;18.15;8.80;;;;;;;-4.42;63.27;101111.33;1716324;83;21187;-34
2020/12/09 20:44:48;;;;;;;22.17;10.08;;;;;;;-4.44;63.47;101115.45;1716126;83;21191;-38
2020/12/09 20:47:16;;;;;;;22.00;9.48;;;;;;;-4.42;63.62;101119.39;1716901;83;21163;-38
2020/12/09 20:49:46;;;;;;;26.85;10.00;;;;;;;-4.36;63.71;101114.72;1717567;83;21167;-38
2020/12/09 20:52:14;;;;;;;29.32;10.72;;;;;;;-4.32;63.65;101109.06;1717932;83;21623;-39
2020/12/09 20:54:42;;;;;;;22.73;10.45;;;;;;;-4.28;63.63;101107.23;1717444;83;21167;-38
2020/12/09 20:57:10;;;;;;;27.48;9.15;;;;;;;-4.24;63.49;101104.50;1717705;83;21575;-39
2020/12/09 20:59:38;;;;;;;21.57;10.13;;;;;;;-4.20;63.48;101099.72;1717519;83;21195;-34
2020/12/09 21:02:06;;;;;;;22.13;10.10;;;;;;;-4.15;63.39;101098.77;1718001;83;21184;-34
2020/12/09 21:04:34;;;;;;;33.67;10.15;;;;;;;-4.10;63.27;101106.39;1717830;83;21143;-34
2020/12/09 21:07:02;;;;;;;24.45;10.45;;;;;;;-4.06;63.14;101100.69;1717851;83;21583;-35
2020/12/09 21:09:30;;;;;;;25.65;10.82;;;;;;;-4.05;63.05;101095.70;1717647;82;21603;-38
2020/12/09 21:11:58;;;;;;;21.55;9.28;;;;;;;-4.03;63.04;101096.70;1715765;83;21970;-35
2020/12/09 21:14:28;;;;;;;19.42;8.80;;;;;;;-4.02;62.92;101097.19;1717135;83;21162;-36
2020/12/09 21:16:55;;;;;;;24.07;10.48;;;;;;;-3.99;62.90;101094.37;1717879;83;21195;-34
2020/12/09 21:19:23;;;;;;;19.10;9.48;;;;;;;-3.98;62.85;101091.91;1717884;83;21167;-35
2020/12/09 21:21:51;;;;;;;22.98;10.38;;;;;;;-3.95;62.84;101088.27;1717629;82;21639;-38
2020/12/09 21:24:19;;;;;;;25.08;11.15;;;;;;;-3.91;62.80;101089.39;1717906;83;21632;-38
2020/12/09 21:26:47;;;;;;;29.50;10.60;;;;;;;-3.88;62.69;101099.45;1717610;83;21638;-38
2020/12/09 21:29:14;;;;;;;20.60;9.88;;;;;;;-3.85;62.69;101103.88;1717662;83;21195;-34
2020/12/09 21:31:44;;;;;;;27.85;10.23;;;;;;;-3.84;62.61;101112.93;1712503;83;21214;-38
2020/12/09 21:34:13;;;;;;;24.65;10.58;;;;;;;-3.83;62.63;101112.54;1688994;83;21169;-35
2020/12/09 21:36:41;;;;;;;28.12;11.20;;;;;;;-3.80;62.38;101108.93;1670741;83;21215;-38
2020/12/09 21:39:09;;;;;;;25.65;10.55;;;;;;;-3.77;62.28;101115.16;1667133;85;21256;-38
2020/12/09 21:41:36;;;;;;;23.85;9.78;;;;;;;-3.72;62.28;101121.85;1667052;86;21243;-34
2020/12/09 21:44:05;;;;;;;23.92;10.70;;;;;;;-3.67;62.10;101124.34;1667060;85;21203;-34
2020/12/09 21:46:41;;;;;;;27.65;11.75;;;;;;;-3.67;61.96;101118.34;1666915;86;21651;-34
2020/12/09 21:49:13;;;;;;;27.22;10.95;;;;;;;-3.66;61.93;101115.00;1667142;85;21724;-38
2020/12/09 21:51:42;;;;;;;27.37;12.25;;;;;;;-3.64;61.82;101120.73;1666418;86;21230;-34
2020/12/09 21:54:13;;;;;;;31.97;12.20;;;;;;;-3.62;61.83;101117.88;1667146;85;21207;-37
2020/12/09 21:56:41;;;;;;;31.87;11.08;;;;;;;-3.60;61.79;101094.56;1667225;86;21198;-38
2020/12/09 21:59:10;;;;;;;32.35;10.55;;;;;;;-3.56;61.74;101102.95;1667158;85;21751;-36
2020/12/09 22:01:38;;;;;;;21.75;9.53;;;;;;;-3.54;61.58;101099.22;1667093;86;21199;-38
2020/12/09 22:04:09;;;;;;;22.95;10.48;;;;;;;-3.53;61.42;101106.13;1667098;85;21646;-35
2020/12/09 22:06:37;;;;;;;30.80;11.78;;;;;;;-3.53;61.32;101106.13;1667193;86;21239;-38
2020/12/09 22:09:05;;;;;;;31.73;11.57;;;;;;;-3.54;61.34;101103.97;1666929;84;21209;-38